sensor_id;sensor_type;location;lat;lon;timestamp;P1;durP1;ratioP1;P2;durP2;ratioP2
7557;SDS011;3820;51.098;13.716;2023-06-26T00:01:07;7.50;;;5.20;;
7557;SDS011;3820;51.098;13.716;2023-06-26T00:03:34;7.07;;;5.30;;
7557;SDS011;3820;51.098;13.716;2023-06-26T00:06:00;7.47;;;5.03;;
7557;SDS011;3820;51.098;13.716;2023-06-26T00:08:28;8.90;;;5.50;;
7557;SDS011;3820;51.098;13.716;2023-06-26T00:10:55;7.30;;;5.00;;
7557;SDS011;3820;51.098;13.716;2023-06-26T00:13:22;7.43;;;5.22;;
7557;SDS011;3820;51.098;13.716;2023-06-26T00:15:49;6.47;;;5.05;;
7557;SDS011;3820;51.098;13.716;2023-06-26T00:18:16;7.63;;;4.85;;
7557;SDS011;3820;51.098;13.716;2023-06-26T00:20:43;9.80;;;5.43;;
7557;SDS011;3820;51.098;13.716;2023-06-26T00:23:10;9.55;;;5.53;;
7557;SDS011;3820;51.098;13.716;2023-06-26T00:25:37;6.95;;;5.07;;
7557;SDS011;3820;51.098;13.716;2023-06-26T00:28:04;7.32;;;5.15;;
7557;SDS011;3820;51.098;13.716;2023-06-26T00:30:31;7.40;;;5.03;;
7557;SDS011;3820;51.098;13.716;2023-06-26T00:32:57;7.97;;;4.95;;
7557;SDS011;3820;51.098;13.716;2023-06-26T00:35:24;6.68;;;4.68;;
7557;SDS011;3820;51.098;13.716;2023-06-26T00:37:50;7.22;;;5.25;;
7557;SDS011;3820;51.098;13.716;2023-06-26T00:40:17;7.53;;;5.00;;
7557;SDS011;3820;51.098;13.716;2023-06-26T00:42:43;7.10;;;4.95;;
7557;SDS011;3820;51.098;13.716;2023-06-26T00:45:10;8.02;;;5.30;;
7557;SDS011;3820;51.098;13.716;2023-06-26T00:47:37;7.03;;;5.13;;
7557;SDS011;3820;51.098;13.716;2023-06-26T00:50:04;7.80;;;5.28;;
7557;SDS011;3820;51.098;13.716;2023-06-26T00:52:31;7.90;;;5.40;;
7557;SDS011;3820;51.098;13.716;2023-06-26T00:54:58;6.95;;;4.88;;
7557;SDS011;3820;51.098;13.716;2023-06-26T00:57:24;8.05;;;5.47;;
7557;SDS011;3820;51.098;13.716;2023-06-26T00:59:51;7.63;;;4.93;;
7557;SDS011;3820;51.098;13.716;2023-06-26T01:02:17;7.18;;;4.90;;
7557;SDS011;3820;51.098;13.716;2023-06-26T01:04:47;6.70;;;4.85;;
7557;SDS011;3820;51.098;13.716;2023-06-26T01:07:15;7.38;;;5.05;;
7557;SDS011;3820;51.098;13.716;2023-06-26T01:09:42;7.55;;;5.03;;
7557;SDS011;3820;51.098;13.716;2023-06-26T01:12:09;7.55;;;5.30;;
7557;SDS011;3820;51.098;13.716;2023-06-26T01:14:36;7.78;;;4.90;;
7557;SDS011;3820;51.098;13.716;2023-06-26T01:17:03;8.98;;;5.53;;
7557;SDS011;3820;51.098;13.716;2023-06-26T01:19:30;8.38;;;5.63;;
7557;SDS011;3820;51.098;13.716;2023-06-26T01:22:02;8.70;;;5.82;;
7557;SDS011;3820;51.098;13.716;2023-06-26T01:25:26;9.25;;;5.47;;
7557;SDS011;3820;51.098;13.716;2023-06-26T01:27:48;8.23;;;5.78;;
7557;SDS011;3820;51.098;13.716;2023-06-26T01:30:17;7.65;;;5.28;;
7557;SDS011;3820;51.098;13.716;2023-06-26T01:32:44;8.02;;;5.45;;
7557;SDS011;3820;51.098;13.716;2023-06-26T01:35:12;7.65;;;5.38;;
7557;SDS011;3820;51.098;13.716;2023-06-26T01:37:40;8.32;;;5.57;;
7557;SDS011;3820;51.098;13.716;2023-06-26T01:40:06;7.97;;;5.50;;
7557;SDS011;3820;51.098;13.716;2023-06-26T01:42:34;7.90;;;5.30;;
7557;SDS011;3820;51.098;13.716;2023-06-26T01:45:02;8.48;;;5.32;;
7557;SDS011;3820;51.098;13.716;2023-06-26T01:47:33;9.27;;;6.15;;
7557;SDS011;3820;51.098;13.716;2023-06-26T01:50:05;8.93;;;5.65;;
7557;SDS011;3820;51.098;13.716;2023-06-26T01:52:43;8.20;;;5.70;;
7557;SDS011;3820;51.098;13.716;2023-06-26T01:55:20;8.85;;;5.53;;
7557;SDS011;3820;51.098;13.716;2023-06-26T01:57:48;7.63;;;5.03;;
7557;SDS011;3820;51.098;13.716;2023-06-26T02:00:18;9.02;;;5.60;;
7557;SDS011;3820;51.098;13.716;2023-06-26T02:02:46;7.55;;;5.53;;
7557;SDS011;3820;51.098;13.716;2023-06-26T02:05:13;8.35;;;5.43;;
7557;SDS011;3820;51.098;13.716;2023-06-26T02:07:40;8.57;;;5.57;;
7557;SDS011;3820;51.098;13.716;2023-06-26T02:10:07;7.90;;;5.47;;
7557;SDS011;3820;51.098;13.716;2023-06-26T02:12:35;7.97;;;5.45;;
7557;SDS011;3820;51.098;13.716;2023-06-26T02:15:02;8.65;;;5.63;;
7557;SDS011;3820;51.098;13.716;2023-06-26T02:17:29;7.82;;;5.60;;
7557;SDS011;3820;51.098;13.716;2023-06-26T02:19:57;10.00;;;6.10;;
7557;SDS011;3820;51.098;13.716;2023-06-26T02:22:23;7.70;;;5.40;;
7557;SDS011;3820;51.098;13.716;2023-06-26T02:24:50;8.23;;;5.47;;
7557;SDS011;3820;51.098;13.716;2023-06-26T02:27:17;7.50;;;5.20;;
7557;SDS011;3820;51.098;13.716;2023-06-26T02:29:43;9.68;;;5.43;;
7557;SDS011;3820;51.098;13.716;2023-06-26T02:32:10;11.43;;;5.97;;
7557;SDS011;3820;51.098;13.716;2023-06-26T02:34:37;10.07;;;6.88;;
7557;SDS011;3820;51.098;13.716;2023-06-26T02:37:03;10.75;;;6.65;;
7557;SDS011;3820;51.098;13.716;2023-06-26T02:39:34;11.20;;;7.32;;
7557;SDS011;3820;51.098;13.716;2023-06-26T02:42:01;10.70;;;6.65;;
7557;SDS011;3820;51.098;13.716;2023-06-26T02:44:27;10.32;;;6.85;;
7557;SDS011;3820;51.098;13.716;2023-06-26T02:46:54;9.93;;;6.22;;
7557;SDS011;3820;51.098;13.716;2023-06-26T02:49:21;9.10;;;5.82;;
7557;SDS011;3820;51.098;13.716;2023-06-26T02:51:49;8.18;;;5.68;;
7557;SDS011;3820;51.098;13.716;2023-06-26T02:54:15;12.82;;;5.93;;
7557;SDS011;3820;51.098;13.716;2023-06-26T02:56:42;9.35;;;6.15;;
7557;SDS011;3820;51.098;13.716;2023-06-26T02:59:13;7.45;;;5.60;;
7557;SDS011;3820;51.098;13.716;2023-06-26T03:01:40;8.38;;;6.10;;
7557;SDS011;3820;51.098;13.716;2023-06-26T03:04:07;9.55;;;6.10;;
7557;SDS011;3820;51.098;13.716;2023-06-26T03:06:34;9.30;;;6.07;;
7557;SDS011;3820;51.098;13.716;2023-06-26T03:09:00;8.40;;;5.63;;
7557;SDS011;3820;51.098;13.716;2023-06-26T03:11:27;8.95;;;5.95;;
7557;SDS011;3820;51.098;13.716;2023-06-26T03:13:54;9.90;;;6.28;;
7557;SDS011;3820;51.098;13.716;2023-06-26T03:16:21;9.93;;;5.85;;
7557;SDS011;3820;51.098;13.716;2023-06-26T03:18:48;11.27;;;6.22;;
7557;SDS011;3820;51.098;13.716;2023-06-26T03:21:14;10.45;;;6.40;;
7557;SDS011;3820;51.098;13.716;2023-06-26T03:23:41;8.88;;;6.00;;
7557;SDS011;3820;51.098;13.716;2023-06-26T03:26:07;7.72;;;5.75;;
7557;SDS011;3820;51.098;13.716;2023-06-26T03:28:33;9.18;;;5.93;;
7557;SDS011;3820;51.098;13.716;2023-06-26T03:31:00;8.88;;;5.75;;
7557;SDS011;3820;51.098;13.716;2023-06-26T03:33:27;8.48;;;5.57;;
7557;SDS011;3820;51.098;13.716;2023-06-26T03:35:54;9.43;;;6.03;;
7557;SDS011;3820;51.098;13.716;2023-06-26T03:38:21;10.00;;;6.20;;
7557;SDS011;3820;51.098;13.716;2023-06-26T03:40:48;8.88;;;5.95;;
7557;SDS011;3820;51.098;13.716;2023-06-26T03:43:14;11.27;;;6.07;;
7557;SDS011;3820;51.098;13.716;2023-06-26T03:45:41;9.75;;;6.00;;
7557;SDS011;3820;51.098;13.716;2023-06-26T03:48:07;8.82;;;5.40;;
7557;SDS011;3820;51.098;13.716;2023-06-26T03:50:34;9.43;;;5.75;;
7557;SDS011;3820;51.098;13.716;2023-06-26T03:53:01;10.98;;;7.18;;
7557;SDS011;3820;51.098;13.716;2023-06-26T03:55:27;10.80;;;6.30;;
7557;SDS011;3820;51.098;13.716;2023-06-26T03:57:54;9.93;;;6.25;;
7557;SDS011;3820;51.098;13.716;2023-06-26T04:00:20;9.05;;;6.00;;
7557;SDS011;3820;51.098;13.716;2023-06-26T04:02:47;12.75;;;6.97;;
7557;SDS011;3820;51.098;13.716;2023-06-26T04:05:13;11.73;;;6.57;;
7557;SDS011;3820;51.098;13.716;2023-06-26T04:07:41;9.75;;;6.20;;
7557;SDS011;3820;51.098;13.716;2023-06-26T04:10:07;8.73;;;6.03;;
7557;SDS011;3820;51.098;13.716;2023-06-26T04:12:34;11.52;;;6.32;;
7557;SDS011;3820;51.098;13.716;2023-06-26T04:15:01;10.02;;;6.65;;
7557;SDS011;3820;51.098;13.716;2023-06-26T04:17:28;9.25;;;6.20;;
7557;SDS011;3820;51.098;13.716;2023-06-26T04:19:54;10.35;;;5.80;;
7557;SDS011;3820;51.098;13.716;2023-06-26T04:22:21;9.32;;;6.18;;
7557;SDS011;3820;51.098;13.716;2023-06-26T04:24:47;10.82;;;6.53;;
7557;SDS011;3820;51.098;13.716;2023-06-26T04:27:14;8.80;;;5.60;;
7557;SDS011;3820;51.098;13.716;2023-06-26T04:29:41;9.73;;;6.55;;
7557;SDS011;3820;51.098;13.716;2023-06-26T04:32:08;11.60;;;6.15;;
7557;SDS011;3820;51.098;13.716;2023-06-26T04:34:35;9.35;;;6.07;;
7557;SDS011;3820;51.098;13.716;2023-06-26T04:37:02;10.88;;;5.90;;
7557;SDS011;3820;51.098;13.716;2023-06-26T04:39:32;12.20;;;6.45;;
7557;SDS011;3820;51.098;13.716;2023-06-26T04:41:58;9.80;;;6.80;;
7557;SDS011;3820;51.098;13.716;2023-06-26T04:44:25;8.48;;;5.72;;
7557;SDS011;3820;51.098;13.716;2023-06-26T04:46:51;10.38;;;5.85;;
7557;SDS011;3820;51.098;13.716;2023-06-26T04:49:18;10.43;;;6.35;;
7557;SDS011;3820;51.098;13.716;2023-06-26T04:51:46;9.52;;;6.30;;
7557;SDS011;3820;51.098;13.716;2023-06-26T04:54:15;9.93;;;6.53;;
7557;SDS011;3820;51.098;13.716;2023-06-26T04:56:42;7.85;;;5.78;;
7557;SDS011;3820;51.098;13.716;2023-06-26T04:59:10;12.80;;;6.68;;
7557;SDS011;3820;51.098;13.716;2023-06-26T05:01:39;10.13;;;6.45;;
7557;SDS011;3820;51.098;13.716;2023-06-26T05:04:06;10.18;;;5.90;;
7557;SDS011;3820;51.098;13.716;2023-06-26T05:06:33;9.57;;;6.43;;
7557;SDS011;3820;51.098;13.716;2023-06-26T05:09:00;8.10;;;6.03;;
7557;SDS011;3820;51.098;13.716;2023-06-26T05:11:26;7.57;;;5.22;;
7557;SDS011;3820;51.098;13.716;2023-06-26T05:13:53;9.60;;;5.72;;
7557;SDS011;3820;51.098;13.716;2023-06-26T05:16:19;8.73;;;5.85;;
7557;SDS011;3820;51.098;13.716;2023-06-26T05:18:46;8.27;;;5.50;;
7557;SDS011;3820;51.098;13.716;2023-06-26T05:21:12;8.70;;;5.68;;
7557;SDS011;3820;51.098;13.716;2023-06-26T05:23:39;7.97;;;5.45;;
7557;SDS011;3820;51.098;13.716;2023-06-26T05:26:06;8.90;;;5.85;;
7557;SDS011;3820;51.098;13.716;2023-06-26T05:28:33;10.63;;;5.68;;
7557;SDS011;3820;51.098;13.716;2023-06-26T05:31:02;9.30;;;5.90;;
7557;SDS011;3820;51.098;13.716;2023-06-26T05:33:31;8.23;;;5.70;;
7557;SDS011;3820;51.098;13.716;2023-06-26T05:36:01;6.53;;;5.00;;
7557;SDS011;3820;51.098;13.716;2023-06-26T05:38:30;8.50;;;5.70;;
7557;SDS011;3820;51.098;13.716;2023-06-26T05:40:57;7.72;;;5.10;;
7557;SDS011;3820;51.098;13.716;2023-06-26T05:43:24;7.50;;;5.20;;
7557;SDS011;3820;51.098;13.716;2023-06-26T05:45:54;7.15;;;5.13;;
7557;SDS011;3820;51.098;13.716;2023-06-26T05:48:22;8.65;;;5.68;;
7557;SDS011;3820;51.098;13.716;2023-06-26T05:50:48;7.60;;;5.00;;
7557;SDS011;3820;51.098;13.716;2023-06-26T05:53:15;7.45;;;4.88;;
7557;SDS011;3820;51.098;13.716;2023-06-26T05:55:42;8.43;;;5.22;;
7557;SDS011;3820;51.098;13.716;2023-06-26T05:58:10;6.70;;;4.68;;
7557;SDS011;3820;51.098;13.716;2023-06-26T06:00:38;6.50;;;5.07;;
7557;SDS011;3820;51.098;13.716;2023-06-26T06:03:06;7.18;;;4.47;;
7557;SDS011;3820;51.098;13.716;2023-06-26T06:05:33;6.90;;;4.78;;
7557;SDS011;3820;51.098;13.716;2023-06-26T06:08:00;7.53;;;4.28;;
7557;SDS011;3820;51.098;13.716;2023-06-26T06:10:27;6.63;;;4.22;;
7557;SDS011;3820;51.098;13.716;2023-06-26T06:12:54;8.60;;;4.40;;
7557;SDS011;3820;51.098;13.716;2023-06-26T06:15:21;6.20;;;4.63;;
7557;SDS011;3820;51.098;13.716;2023-06-26T06:17:47;6.13;;;4.18;;
7557;SDS011;3820;51.098;13.716;2023-06-26T06:20:14;8.05;;;4.53;;
7557;SDS011;3820;51.098;13.716;2023-06-26T06:22:40;6.63;;;4.10;;
7557;SDS011;3820;51.098;13.716;2023-06-26T06:25:07;9.23;;;4.38;;
7557;SDS011;3820;51.098;13.716;2023-06-26T06:27:34;6.68;;;4.18;;
7557;SDS011;3820;51.098;13.716;2023-06-26T06:30:00;6.68;;;4.15;;
7557;SDS011;3820;51.098;13.716;2023-06-26T06:32:27;5.05;;;4.05;;
7557;SDS011;3820;51.098;13.716;2023-06-26T06:34:54;4.90;;;3.92;;
7557;SDS011;3820;51.098;13.716;2023-06-26T06:37:20;4.90;;;4.05;;
7557;SDS011;3820;51.098;13.716;2023-06-26T06:39:46;6.57;;;3.75;;
7557;SDS011;3820;51.098;13.716;2023-06-26T06:42:13;4.88;;;3.85;;
7557;SDS011;3820;51.098;13.716;2023-06-26T06:44:40;6.10;;;4.20;;
7557;SDS011;3820;51.098;13.716;2023-06-26T06:47:06;3.67;;;3.33;;
7557;SDS011;3820;51.098;13.716;2023-06-26T06:49:33;5.90;;;3.47;;
7557;SDS011;3820;51.098;13.716;2023-06-26T06:51:59;4.03;;;3.55;;
7557;SDS011;3820;51.098;13.716;2023-06-26T06:54:26;4.00;;;3.58;;
7557;SDS011;3820;51.098;13.716;2023-06-26T06:56:53;4.55;;;3.67;;
7557;SDS011;3820;51.098;13.716;2023-06-26T06:59:20;4.68;;;3.83;;
7557;SDS011;3820;51.098;13.716;2023-06-26T07:01:46;4.57;;;3.83;;
7557;SDS011;3820;51.098;13.716;2023-06-26T07:04:13;5.00;;;3.70;;
7557;SDS011;3820;51.098;13.716;2023-06-26T07:06:39;4.65;;;3.72;;
7557;SDS011;3820;51.098;13.716;2023-06-26T07:09:06;6.07;;;3.80;;
7557;SDS011;3820;51.098;13.716;2023-06-26T07:11:33;5.13;;;3.70;;
7557;SDS011;3820;51.098;13.716;2023-06-26T07:14:00;3.88;;;3.38;;
7557;SDS011;3820;51.098;13.716;2023-06-26T07:16:26;5.50;;;3.45;;
7557;SDS011;3820;51.098;13.716;2023-06-26T07:18:53;4.72;;;3.92;;
7557;SDS011;3820;51.098;13.716;2023-06-26T07:21:20;5.18;;;3.80;;
7557;SDS011;3820;51.098;13.716;2023-06-26T07:23:49;4.32;;;3.45;;
7557;SDS011;3820;51.098;13.716;2023-06-26T07:26:16;5.20;;;3.72;;
7557;SDS011;3820;51.098;13.716;2023-06-26T07:28:44;4.10;;;3.35;;
7557;SDS011;3820;51.098;13.716;2023-06-26T07:31:10;4.90;;;3.42;;
7557;SDS011;3820;51.098;13.716;2023-06-26T07:33:37;4.07;;;3.20;;
7557;SDS011;3820;51.098;13.716;2023-06-26T07:36:03;4.10;;;3.40;;
7557;SDS011;3820;51.098;13.716;2023-06-26T07:38:30;4.95;;;3.67;;
7557;SDS011;3820;51.098;13.716;2023-06-26T07:40:57;3.97;;;3.30;;
7557;SDS011;3820;51.098;13.716;2023-06-26T07:43:23;4.45;;;3.70;;
7557;SDS011;3820;51.098;13.716;2023-06-26T07:45:50;4.20;;;3.80;;
7557;SDS011;3820;51.098;13.716;2023-06-26T07:48:17;4.00;;;3.38;;
7557;SDS011;3820;51.098;13.716;2023-06-26T07:50:44;3.95;;;3.50;;
7557;SDS011;3820;51.098;13.716;2023-06-26T07:53:10;3.85;;;3.35;;
7557;SDS011;3820;51.098;13.716;2023-06-26T07:55:37;4.68;;;3.70;;
7557;SDS011;3820;51.098;13.716;2023-06-26T07:58:03;4.15;;;3.33;;
7557;SDS011;3820;51.098;13.716;2023-06-26T08:00:30;4.43;;;3.58;;
7557;SDS011;3820;51.098;13.716;2023-06-26T08:02:56;4.47;;;3.47;;
7557;SDS011;3820;51.098;13.716;2023-06-26T08:05:23;3.63;;;3.33;;
7557;SDS011;3820;51.098;13.716;2023-06-26T08:07:49;3.67;;;3.25;;
7557;SDS011;3820;51.098;13.716;2023-06-26T08:10:16;4.88;;;3.58;;
7557;SDS011;3820;51.098;13.716;2023-06-26T08:12:43;3.85;;;3.20;;
7557;SDS011;3820;51.098;13.716;2023-06-26T08:15:11;4.45;;;3.30;;
7557;SDS011;3820;51.098;13.716;2023-06-26T08:17:38;3.60;;;3.22;;
7557;SDS011;3820;51.098;13.716;2023-06-26T08:20:05;4.00;;;3.47;;
7557;SDS011;3820;51.098;13.716;2023-06-26T08:22:34;5.53;;;4.38;;
7557;SDS011;3820;51.098;13.716;2023-06-26T08:25:01;4.30;;;3.45;;
7557;SDS011;3820;51.098;13.716;2023-06-26T08:27:28;5.28;;;3.85;;
7557;SDS011;3820;51.098;13.716;2023-06-26T08:29:55;4.00;;;3.60;;
7557;SDS011;3820;51.098;13.716;2023-06-26T08:32:21;5.00;;;3.78;;
7557;SDS011;3820;51.098;13.716;2023-06-26T08:34:48;4.78;;;3.75;;
7557;SDS011;3820;51.098;13.716;2023-06-26T08:37:14;4.97;;;3.60;;
7557;SDS011;3820;51.098;13.716;2023-06-26T08:39:41;4.50;;;3.63;;
7557;SDS011;3820;51.098;13.716;2023-06-26T08:42:08;4.13;;;3.35;;
7557;SDS011;3820;51.098;13.716;2023-06-26T08:44:34;5.88;;;4.03;;
7557;SDS011;3820;51.098;13.716;2023-06-26T08:47:06;4.95;;;3.63;;
7557;SDS011;3820;51.098;13.716;2023-06-26T08:49:43;4.00;;;3.35;;
7557;SDS011;3820;51.098;13.716;2023-06-26T08:52:41;4.25;;;3.63;;
7557;SDS011;3820;51.098;13.716;2023-06-26T08:55:10;4.88;;;3.67;;
7557;SDS011;3820;51.098;13.716;2023-06-26T08:57:40;4.07;;;3.63;;
7557;SDS011;3820;51.098;13.716;2023-06-26T09:00:07;5.03;;;3.30;;
7557;SDS011;3820;51.098;13.716;2023-06-26T09:02:35;4.00;;;3.60;;
7557;SDS011;3820;51.098;13.716;2023-06-26T09:05:03;4.53;;;3.72;;
7557;SDS011;3820;51.098;13.716;2023-06-26T09:07:30;4.05;;;3.65;;
7557;SDS011;3820;51.098;13.716;2023-06-26T09:09:56;4.40;;;3.70;;
7557;SDS011;3820;51.098;13.716;2023-06-26T09:12:23;4.38;;;3.65;;
7557;SDS011;3820;51.098;13.716;2023-06-26T09:14:54;4.18;;;3.75;;
7557;SDS011;3820;51.098;13.716;2023-06-26T09:17:25;4.22;;;3.58;;
7557;SDS011;3820;51.098;13.716;2023-06-26T09:19:55;4.25;;;3.65;;
7557;SDS011;3820;51.098;13.716;2023-06-26T09:22:22;5.07;;;3.85;;
7557;SDS011;3820;51.098;13.716;2023-06-26T09:24:49;4.68;;;3.83;;
7557;SDS011;3820;51.098;13.716;2023-06-26T09:27:16;4.95;;;3.30;;
7557;SDS011;3820;51.098;13.716;2023-06-26T09:29:45;4.30;;;3.55;;
7557;SDS011;3820;51.098;13.716;2023-06-26T09:32:13;4.25;;;3.17;;
7557;SDS011;3820;51.098;13.716;2023-06-26T09:34:41;3.85;;;3.17;;
7557;SDS011;3820;51.098;13.716;2023-06-26T09:37:08;4.10;;;3.58;;
7557;SDS011;3820;51.098;13.716;2023-06-26T09:39:34;4.30;;;3.60;;
7557;SDS011;3820;51.098;13.716;2023-06-26T09:42:01;4.28;;;3.83;;
7557;SDS011;3820;51.098;13.716;2023-06-26T09:44:32;4.63;;;3.40;;
7557;SDS011;3820;51.098;13.716;2023-06-26T09:47:00;3.97;;;3.50;;
7557;SDS011;3820;51.098;13.716;2023-06-26T09:49:29;5.28;;;3.47;;
7557;SDS011;3820;51.098;13.716;2023-06-26T09:51:57;6.05;;;3.47;;
7557;SDS011;3820;51.098;13.716;2023-06-26T09:54:26;5.20;;;3.95;;
7557;SDS011;3820;51.098;13.716;2023-06-26T09:56:55;4.63;;;3.75;;
7557;SDS011;3820;51.098;13.716;2023-06-26T09:59:33;4.20;;;3.80;;
7557;SDS011;3820;51.098;13.716;2023-06-26T10:01:59;5.68;;;3.83;;
7557;SDS011;3820;51.098;13.716;2023-06-26T10:04:27;5.03;;;3.83;;
7557;SDS011;3820;51.098;13.716;2023-06-26T10:06:54;4.65;;;3.75;;
7557;SDS011;3820;51.098;13.716;2023-06-26T10:09:22;4.60;;;3.70;;
7557;SDS011;3820;51.098;13.716;2023-06-26T10:11:58;4.43;;;3.20;;
7557;SDS011;3820;51.098;13.716;2023-06-26T10:14:34;4.03;;;3.40;;
7557;SDS011;3820;51.098;13.716;2023-06-26T10:17:03;4.93;;;3.38;;
7557;SDS011;3820;51.098;13.716;2023-06-26T10:19:34;5.28;;;3.58;;
7557;SDS011;3820;51.098;13.716;2023-06-26T10:22:01;4.13;;;3.67;;
7557;SDS011;3820;51.098;13.716;2023-06-26T10:24:29;4.00;;;3.22;;
7557;SDS011;3820;51.098;13.716;2023-06-26T10:27:19;4.00;;;3.47;;
7557;SDS011;3820;51.098;13.716;2023-06-26T10:29:46;3.65;;;3.22;;
7557;SDS011;3820;51.098;13.716;2023-06-26T10:32:15;5.13;;;3.72;;
7557;SDS011;3820;51.098;13.716;2023-06-26T10:34:42;4.30;;;3.72;;
7557;SDS011;3820;51.098;13.716;2023-06-26T10:37:09;3.80;;;3.30;;
7557;SDS011;3820;51.098;13.716;2023-06-26T10:42:15;5.40;;;3.80;;
7557;SDS011;3820;51.098;13.716;2023-06-26T10:44:43;3.85;;;3.38;;
7557;SDS011;3820;51.098;13.716;2023-06-26T10:47:11;5.03;;;3.38;;
7557;SDS011;3820;51.098;13.716;2023-06-26T10:49:38;4.68;;;3.63;;
7557;SDS011;3820;51.098;13.716;2023-06-26T10:52:05;4.30;;;3.30;;
7557;SDS011;3820;51.098;13.716;2023-06-26T10:54:32;3.75;;;3.35;;
7557;SDS011;3820;51.098;13.716;2023-06-26T10:56:59;4.63;;;3.72;;
7557;SDS011;3820;51.098;13.716;2023-06-26T10:59:28;4.70;;;3.63;;
7557;SDS011;3820;51.098;13.716;2023-06-26T11:02:01;4.90;;;4.30;;
7557;SDS011;3820;51.098;13.716;2023-06-26T11:07:14;4.50;;;3.55;;
7557;SDS011;3820;51.098;13.716;2023-06-26T11:12:44;4.38;;;3.47;;
7557;SDS011;3820;51.098;13.716;2023-06-26T11:15:15;4.63;;;3.70;;
7557;SDS011;3820;51.098;13.716;2023-06-26T11:17:42;5.15;;;3.90;;
7557;SDS011;3820;51.098;13.716;2023-06-26T11:20:10;4.15;;;3.70;;
7557;SDS011;3820;51.098;13.716;2023-06-26T11:22:39;4.57;;;3.58;;
7557;SDS011;3820;51.098;13.716;2023-06-26T11:25:06;4.47;;;3.70;;
7557;SDS011;3820;51.098;13.716;2023-06-26T11:30:08;4.53;;;3.50;;
7557;SDS011;3820;51.098;13.716;2023-06-26T11:32:36;4.45;;;3.40;;
7557;SDS011;3820;51.098;13.716;2023-06-26T11:35:04;5.10;;;3.72;;
7557;SDS011;3820;51.098;13.716;2023-06-26T11:37:32;4.65;;;3.53;;
7557;SDS011;3820;51.098;13.716;2023-06-26T11:39:59;4.07;;;3.45;;
7557;SDS011;3820;51.098;13.716;2023-06-26T11:42:28;4.80;;;3.20;;
7557;SDS011;3820;51.098;13.716;2023-06-26T11:44:57;4.05;;;3.30;;
7557;SDS011;3820;51.098;13.716;2023-06-26T11:47:24;4.97;;;4.00;;
7557;SDS011;3820;51.098;13.716;2023-06-26T11:49:51;5.00;;;3.67;;
7557;SDS011;3820;51.098;13.716;2023-06-26T11:52:17;4.68;;;3.70;;
7557;SDS011;3820;51.098;13.716;2023-06-26T11:54:50;4.85;;;3.85;;
7557;SDS011;3820;51.098;13.716;2023-06-26T11:57:17;4.93;;;3.70;;
7557;SDS011;3820;51.098;13.716;2023-06-26T11:59:45;5.15;;;3.30;;
7557;SDS011;3820;51.098;13.716;2023-06-26T12:02:15;4.72;;;3.45;;
7557;SDS011;3820;51.098;13.716;2023-06-26T12:04:43;5.30;;;3.85;;
7557;SDS011;3820;51.098;13.716;2023-06-26T12:07:11;4.70;;;3.60;;
7557;SDS011;3820;51.098;13.716;2023-06-26T12:09:40;4.40;;;3.42;;
7557;SDS011;3820;51.098;13.716;2023-06-26T12:12:08;5.15;;;3.35;;
7557;SDS011;3820;51.098;13.716;2023-06-26T12:14:35;5.07;;;3.30;;
7557;SDS011;3820;51.098;13.716;2023-06-26T12:17:09;4.40;;;3.60;;
7557;SDS011;3820;51.098;13.716;2023-06-26T12:19:37;4.22;;;3.75;;
7557;SDS011;3820;51.098;13.716;2023-06-26T12:22:05;4.78;;;3.75;;
7557;SDS011;3820;51.098;13.716;2023-06-26T12:24:33;4.18;;;3.70;;
7557;SDS011;3820;51.098;13.716;2023-06-26T12:27:00;4.93;;;3.38;;
7557;SDS011;3820;51.098;13.716;2023-06-26T12:29:31;4.07;;;3.35;;
7557;SDS011;3820;51.098;13.716;2023-06-26T12:31:59;5.47;;;3.90;;
7557;SDS011;3820;51.098;13.716;2023-06-26T12:34:33;5.07;;;3.60;;
7557;SDS011;3820;51.098;13.716;2023-06-26T12:37:01;4.97;;;3.67;;
7557;SDS011;3820;51.098;13.716;2023-06-26T12:39:29;4.85;;;3.65;;
7557;SDS011;3820;51.098;13.716;2023-06-26T12:41:57;4.55;;;3.67;;
7557;SDS011;3820;51.098;13.716;2023-06-26T12:44:30;4.22;;;3.47;;
7557;SDS011;3820;51.098;13.716;2023-06-26T12:46:57;4.13;;;3.20;;
7557;SDS011;3820;51.098;13.716;2023-06-26T12:49:34;4.65;;;3.72;;
7557;SDS011;3820;51.098;13.716;2023-06-26T12:52:03;6.13;;;3.78;;
7557;SDS011;3820;51.098;13.716;2023-06-26T12:54:31;4.03;;;3.63;;
7557;SDS011;3820;51.098;13.716;2023-06-26T12:56:59;4.80;;;3.70;;
7557;SDS011;3820;51.098;13.716;2023-06-26T12:59:26;4.25;;;3.50;;
7557;SDS011;3820;51.098;13.716;2023-06-26T13:01:53;5.18;;;3.33;;
7557;SDS011;3820;51.098;13.716;2023-06-26T13:04:20;8.25;;;3.58;;
7557;SDS011;3820;51.098;13.716;2023-06-26T13:06:47;3.88;;;3.47;;
7557;SDS011;3820;51.098;13.716;2023-06-26T13:09:13;4.55;;;3.83;;
7557;SDS011;3820;51.098;13.716;2023-06-26T13:11:40;5.25;;;3.80;;
7557;SDS011;3820;51.098;13.716;2023-06-26T13:14:07;5.03;;;3.80;;
7557;SDS011;3820;51.098;13.716;2023-06-26T13:16:37;4.05;;;3.40;;
7557;SDS011;3820;51.098;13.716;2023-06-26T13:19:04;4.68;;;3.50;;
7557;SDS011;3820;51.098;13.716;2023-06-26T13:21:30;4.95;;;3.70;;
7557;SDS011;3820;51.098;13.716;2023-06-26T13:23:57;5.45;;;3.92;;
7557;SDS011;3820;51.098;13.716;2023-06-26T13:26:25;4.32;;;3.70;;
7557;SDS011;3820;51.098;13.716;2023-06-26T13:29:00;6.00;;;3.60;;
7557;SDS011;3820;51.098;13.716;2023-06-26T13:31:27;5.05;;;3.58;;
7557;SDS011;3820;51.098;13.716;2023-06-26T13:33:56;4.53;;;3.78;;
7557;SDS011;3820;51.098;13.716;2023-06-26T13:36:24;4.78;;;3.90;;
7557;SDS011;3820;51.098;13.716;2023-06-26T13:38:51;4.88;;;3.80;;
7557;SDS011;3820;51.098;13.716;2023-06-26T13:41:22;4.78;;;3.65;;
7557;SDS011;3820;51.098;13.716;2023-06-26T13:43:50;6.18;;;4.03;;
7557;SDS011;3820;51.098;13.716;2023-06-26T13:46:17;4.25;;;3.58;;
7557;SDS011;3820;51.098;13.716;2023-06-26T13:48:44;4.05;;;3.38;;
7557;SDS011;3820;51.098;13.716;2023-06-26T13:51:11;4.20;;;3.28;;
7557;SDS011;3820;51.098;13.716;2023-06-26T13:53:39;3.85;;;3.00;;
7557;SDS011;3820;51.098;13.716;2023-06-26T13:56:06;5.28;;;3.97;;
7557;SDS011;3820;51.098;13.716;2023-06-26T13:58:34;5.43;;;4.05;;
7557;SDS011;3820;51.098;13.716;2023-06-26T14:01:02;4.35;;;3.78;;
7557;SDS011;3820;51.098;13.716;2023-06-26T14:03:31;5.53;;;3.80;;
7557;SDS011;3820;51.098;13.716;2023-06-26T14:05:57;4.78;;;3.70;;
7557;SDS011;3820;51.098;13.716;2023-06-26T14:08:24;5.53;;;3.70;;
7557;SDS011;3820;51.098;13.716;2023-06-26T14:10:51;4.55;;;3.45;;
7557;SDS011;3820;51.098;13.716;2023-06-26T14:13:18;5.47;;;3.70;;
7557;SDS011;3820;51.098;13.716;2023-06-26T14:15:48;4.93;;;3.95;;
7557;SDS011;3820;51.098;13.716;2023-06-26T14:18:19;5.10;;;4.05;;
7557;SDS011;3820;51.098;13.716;2023-06-26T14:20:47;5.40;;;4.10;;
7557;SDS011;3820;51.098;13.716;2023-06-26T14:23:13;5.53;;;4.30;;
7557;SDS011;3820;51.098;13.716;2023-06-26T14:25:40;4.60;;;3.75;;
7557;SDS011;3820;51.098;13.716;2023-06-26T14:28:10;4.72;;;3.63;;
7557;SDS011;3820;51.098;13.716;2023-06-26T14:30:38;4.60;;;3.70;;
7557;SDS011;3820;51.098;13.716;2023-06-26T14:33:05;4.75;;;3.90;;
7557;SDS011;3820;51.098;13.716;2023-06-26T14:35:31;4.03;;;3.55;;
7557;SDS011;3820;51.098;13.716;2023-06-26T14:37:58;4.75;;;3.63;;
7557;SDS011;3820;51.098;13.716;2023-06-26T14:40:25;6.25;;;4.40;;
7557;SDS011;3820;51.098;13.716;2023-06-26T14:42:51;4.43;;;3.80;;
7557;SDS011;3820;51.098;13.716;2023-06-26T14:45:19;5.38;;;3.83;;
7557;SDS011;3820;51.098;13.716;2023-06-26T14:47:47;5.60;;;4.15;;
7557;SDS011;3820;51.098;13.716;2023-06-26T14:50:13;5.25;;;3.95;;
7557;SDS011;3820;51.098;13.716;2023-06-26T14:52:40;6.03;;;4.00;;
7557;SDS011;3820;51.098;13.716;2023-06-26T14:55:07;5.47;;;3.92;;
7557;SDS011;3820;51.098;13.716;2023-06-26T14:57:34;5.13;;;3.90;;
7557;SDS011;3820;51.098;13.716;2023-06-26T15:00:01;4.95;;;4.07;;
7557;SDS011;3820;51.098;13.716;2023-06-26T15:02:29;5.47;;;4.07;;
7557;SDS011;3820;51.098;13.716;2023-06-26T15:04:56;4.80;;;3.97;;
7557;SDS011;3820;51.098;13.716;2023-06-26T15:07:23;5.60;;;4.05;;
7557;SDS011;3820;51.098;13.716;2023-06-26T15:09:50;5.53;;;4.35;;
7557;SDS011;3820;51.098;13.716;2023-06-26T15:12:16;5.28;;;4.22;;
7557;SDS011;3820;51.098;13.716;2023-06-26T15:14:44;5.63;;;4.40;;